METAR AND TAF INFORMATION
METAR FOR YPTN
ADDS - METARS form results

(0451 UTC 25 September 2018)
Data provider http://aviationweather.gov/metar/data/
 
METAR text: YPTN 250430Z AUTO 13014KT 9999 // BKN105 35/04 Q1011
Conditions at: YPTN (KATHERINE/TINDAL, AU) observed 0430 UTC 25 September 2018
Temperature: 35.0°C (95°F)
Dewpoint: 4.0°C (39°F) [RH = 14%]
Pressure (altimeter): 29.85 inches Hg (1011.0 mb)
Winds: from the SE (130 degrees) at 16 MPH (14 knots; 7.2 m/s)
Visibility: 6 or more miles (10+ km)
Ceiling: 10500 feet AGL
Clouds: broken clouds at 10500 feet AGL
Weather: no significant weather observed at this time

METAR text: YPTN 250400Z AUTO 12011KT 9999 // BKN105 34/06 Q1011
Conditions at: YPTN (KATHERINE/TINDAL, AU) observed 0400 UTC 25 September 2018
Temperature: 34.0°C (93°F)
Dewpoint: 6.0°C (43°F) [RH = 18%]
Pressure (altimeter): 29.85 inches Hg (1011.0 mb)
Winds: from the ESE (120 degrees) at 13 MPH (11 knots; 5.7 m/s)
Visibility: 6 or more miles (10+ km)
Ceiling: 10500 feet AGL
Clouds: broken clouds at 10500 feet AGL
Weather: no significant weather observed at this time

Forecast for: YPTN (KATHERINE/TINDAL, AU)
Text: TAF YPTN 242319Z 2500/2524 11012KT CAVOK
Forecast period: 0000 to 1000 UTC 25 September 2018
Forecast type: FROM: standard forecast or significant change
Winds: from the ESE (110 degrees) at 14 MPH (12 knots; 6.2 m/s)
Visibility: 6 or more miles 10+ km)
Ceiling: unknown
Clouds: missing
Weather: NSW  (no significant weather)
Text: FM251000 10006KT CAVOK
Forecast period: 1000 UTC 25 September 2018 to 0000 UTC 26 September 2018
Forecast type: FROM: standard forecast or significant change
Winds: from the E (100 degrees) at 7 MPH (6 knots; 3.1 m/s)
Visibility: 6 or more miles 10+ km)
Ceiling: unknown
Clouds: missing
Weather: NSW  (no significant weather)

 AIRPORT MAP

 RUNWAY INFORMATION
Runway 14 Runway length 9003 ft Runway width 150 ft
Runway elevation 428 ft Runway displaced threshold 0 ft Runway heading 139
Runway 32 Runway length 9003 ft Runway width 150 ft
Runway elevation 443 ft Runway displaced threshold 0 ft Runway heading 319

 AIRPORT FREQUENCIES
Type APP Name APP Frequency 120.95 MHZ
Type ATIS Name ATIS Frequency 112.3 MHZ
Type CLD Name CLNC DEL Frequency 128.1 MHZ
Type CTAF Name CTAF Frequency 119.7 MHZ
Type FSS Name BRISBANE C Frequency 122.6 MHZ
Type GND Name GND Frequency 135.85 MHZ
Type TWR Name TWR Frequency 119.7 MHZ

 AIRPORT NEAR NAVIGATION AIDS
Type TACAN Name Tindal Frequency 112300 KHZ
Type VOR Name Tindal Frequency 112300 KHZ
Type NDB Name Tindal Frequency 356 KHZ